sensor_id;sensor_type;location;lat;lon;timestamp;P1;durP1;ratioP1;P2;durP2;ratioP2
77146;SDS011;66121;52.584;9.694;2023-10-19T00:01:41;15.23;;;8.55;;
77146;SDS011;66121;52.584;9.694;2023-10-19T00:04:26;16.90;;;9.90;;
77146;SDS011;66121;52.584;9.694;2023-10-19T00:07:16;17.92;;;10.23;;
77146;SDS011;66121;52.584;9.694;2023-10-19T00:10:02;18.30;;;10.70;;
77146;SDS011;66121;52.584;9.694;2023-10-19T00:12:49;19.80;;;10.25;;
77146;SDS011;66121;52.584;9.694;2023-10-19T00:15:43;20.15;;;10.15;;
77146;SDS011;66121;52.584;9.694;2023-10-19T00:18:39;18.55;;;11.40;;
77146;SDS011;66121;52.584;9.694;2023-10-19T00:21:28;20.92;;;11.15;;
77146;SDS011;66121;52.584;9.694;2023-10-19T00:24:14;18.25;;;10.48;;
77146;SDS011;66121;52.584;9.694;2023-10-19T00:27:02;16.98;;;10.98;;
77146;SDS011;66121;52.584;9.694;2023-10-19T00:30:02;14.98;;;9.98;;
77146;SDS011;66121;52.584;9.694;2023-10-19T00:32:55;17.15;;;11.00;;
77146;SDS011;66121;52.584;9.694;2023-10-19T00:35:41;17.35;;;10.82;;
77146;SDS011;66121;52.584;9.694;2023-10-19T00:38:37;19.10;;;10.88;;
77146;SDS011;66121;52.584;9.694;2023-10-19T00:41:24;18.75;;;11.05;;
77146;SDS011;66121;52.584;9.694;2023-10-19T00:44:16;20.00;;;12.00;;
77146;SDS011;66121;52.584;9.694;2023-10-19T00:47:08;23.52;;;11.07;;
77146;SDS011;66121;52.584;9.694;2023-10-19T00:50:04;20.92;;;11.20;;
77146;SDS011;66121;52.584;9.694;2023-10-19T00:52:50;23.50;;;12.48;;
77146;SDS011;66121;52.584;9.694;2023-10-19T00:55:37;22.92;;;11.98;;
77146;SDS011;66121;52.584;9.694;2023-10-19T00:58:22;18.70;;;10.77;;
77146;SDS011;66121;52.584;9.694;2023-10-19T01:01:15;20.55;;;10.48;;
77146;SDS011;66121;52.584;9.694;2023-10-19T01:04:04;17.92;;;10.95;;
77146;SDS011;66121;52.584;9.694;2023-10-19T01:06:50;20.88;;;12.23;;
77146;SDS011;66121;52.584;9.694;2023-10-19T01:09:58;24.23;;;13.35;;
77146;SDS011;66121;52.584;9.694;2023-10-19T01:12:45;22.80;;;12.63;;
77146;SDS011;66121;52.584;9.694;2023-10-19T01:15:31;25.95;;;12.73;;
77146;SDS011;66121;52.584;9.694;2023-10-19T01:18:22;24.35;;;13.88;;
77146;SDS011;66121;52.584;9.694;2023-10-19T01:21:07;24.73;;;12.57;;
77146;SDS011;66121;52.584;9.694;2023-10-19T01:23:53;25.13;;;13.68;;
77146;SDS011;66121;52.584;9.694;2023-10-19T01:26:39;28.15;;;13.82;;
77146;SDS011;66121;52.584;9.694;2023-10-19T01:29:25;25.27;;;13.85;;
77146;SDS011;66121;52.584;9.694;2023-10-19T01:32:13;23.33;;;13.05;;
77146;SDS011;66121;52.584;9.694;2023-10-19T01:35:00;21.17;;;11.30;;
77146;SDS011;66121;52.584;9.694;2023-10-19T01:37:46;24.13;;;13.70;;
77146;SDS011;66121;52.584;9.694;2023-10-19T01:40:32;24.75;;;12.85;;
77146;SDS011;66121;52.584;9.694;2023-10-19T01:43:17;23.75;;;12.35;;
77146;SDS011;66121;52.584;9.694;2023-10-19T01:46:07;25.98;;;13.82;;
77146;SDS011;66121;52.584;9.694;2023-10-19T01:49:07;22.25;;;12.63;;
77146;SDS011;66121;52.584;9.694;2023-10-19T01:51:53;22.30;;;11.90;;
77146;SDS011;66121;52.584;9.694;2023-10-19T01:54:40;29.40;;;13.82;;
77146;SDS011;66121;52.584;9.694;2023-10-19T01:57:25;27.52;;;13.55;;
77146;SDS011;66121;52.584;9.694;2023-10-19T02:00:11;28.13;;;14.35;;
77146;SDS011;66121;52.584;9.694;2023-10-19T02:05:59;29.83;;;15.10;;
77146;SDS011;66121;52.584;9.694;2023-10-19T02:08:56;30.15;;;15.27;;
77146;SDS011;66121;52.584;9.694;2023-10-19T02:11:46;20.55;;;12.30;;
77146;SDS011;66121;52.584;9.694;2023-10-19T02:14:38;31.30;;;15.77;;
77146;SDS011;66121;52.584;9.694;2023-10-19T02:17:24;23.65;;;11.25;;
77146;SDS011;66121;52.584;9.694;2023-10-19T02:20:10;25.80;;;14.30;;
77146;SDS011;66121;52.584;9.694;2023-10-19T02:22:58;27.08;;;13.90;;
77146;SDS011;66121;52.584;9.694;2023-10-19T02:25:48;25.38;;;14.45;;
77146;SDS011;66121;52.584;9.694;2023-10-19T02:28:35;33.78;;;16.02;;
77146;SDS011;66121;52.584;9.694;2023-10-19T02:31:23;44.72;;;19.67;;
77146;SDS011;66121;52.584;9.694;2023-10-19T02:34:11;38.08;;;18.23;;
77146;SDS011;66121;52.584;9.694;2023-10-19T02:37:00;31.00;;;16.83;;
77146;SDS011;66121;52.584;9.694;2023-10-19T02:39:46;29.75;;;16.10;;
77146;SDS011;66121;52.584;9.694;2023-10-19T02:42:32;33.88;;;16.45;;
77146;SDS011;66121;52.584;9.694;2023-10-19T02:45:18;31.20;;;17.13;;
77146;SDS011;66121;52.584;9.694;2023-10-19T02:48:04;33.90;;;17.55;;
77146;SDS011;66121;52.584;9.694;2023-10-19T02:50:50;34.15;;;17.35;;
77146;SDS011;66121;52.584;9.694;2023-10-19T02:53:36;33.28;;;16.35;;
77146;SDS011;66121;52.584;9.694;2023-10-19T02:56:23;35.00;;;18.25;;
77146;SDS011;66121;52.584;9.694;2023-10-19T02:59:09;32.40;;;17.23;;
77146;SDS011;66121;52.584;9.694;2023-10-19T03:01:55;38.90;;;17.13;;
77146;SDS011;66121;52.584;9.694;2023-10-19T03:04:46;33.70;;;18.45;;
77146;SDS011;66121;52.584;9.694;2023-10-19T03:07:32;36.80;;;17.60;;
77146;SDS011;66121;52.584;9.694;2023-10-19T03:10:17;32.47;;;17.30;;
77146;SDS011;66121;52.584;9.694;2023-10-19T03:13:19;36.83;;;19.88;;
77146;SDS011;66121;52.584;9.694;2023-10-19T03:16:09;32.72;;;18.35;;
77146;SDS011;66121;52.584;9.694;2023-10-19T03:18:54;36.60;;;19.20;;
77146;SDS011;66121;52.584;9.694;2023-10-19T03:21:40;25.83;;;14.30;;
77146;SDS011;66121;52.584;9.694;2023-10-19T03:24:29;31.33;;;16.00;;
77146;SDS011;66121;52.584;9.694;2023-10-19T03:27:21;36.53;;;19.55;;
77146;SDS011;66121;52.584;9.694;2023-10-19T03:30:07;38.35;;;19.05;;
77146;SDS011;66121;52.584;9.694;2023-10-19T03:32:53;33.17;;;17.45;;
77146;SDS011;66121;52.584;9.694;2023-10-19T03:35:39;38.70;;;19.75;;
77146;SDS011;66121;52.584;9.694;2023-10-19T03:38:27;36.45;;;18.23;;
77146;SDS011;66121;52.584;9.694;2023-10-19T03:41:20;30.88;;;16.50;;
77146;SDS011;66121;52.584;9.694;2023-10-19T03:44:12;38.58;;;19.88;;
77146;SDS011;66121;52.584;9.694;2023-10-19T03:47:10;40.78;;;19.92;;
77146;SDS011;66121;52.584;9.694;2023-10-19T03:50:03;38.92;;;19.98;;
77146;SDS011;66121;52.584;9.694;2023-10-19T03:52:52;40.05;;;21.52;;
77146;SDS011;66121;52.584;9.694;2023-10-19T03:55:38;36.00;;;18.50;;
77146;SDS011;66121;52.584;9.694;2023-10-19T03:58:24;37.63;;;19.08;;
77146;SDS011;66121;52.584;9.694;2023-10-19T04:01:12;36.28;;;20.10;;
77146;SDS011;66121;52.584;9.694;2023-10-19T04:04:01;39.10;;;20.00;;
77146;SDS011;66121;52.584;9.694;2023-10-19T04:06:47;34.88;;;18.85;;
77146;SDS011;66121;52.584;9.694;2023-10-19T04:09:33;31.67;;;16.92;;
77146;SDS011;66121;52.584;9.694;2023-10-19T04:12:19;38.05;;;20.38;;
77146;SDS011;66121;52.584;9.694;2023-10-19T04:15:08;42.05;;;22.25;;
77146;SDS011;66121;52.584;9.694;2023-10-19T04:18:06;41.17;;;21.95;;
77146;SDS011;66121;52.584;9.694;2023-10-19T04:20:54;42.08;;;19.52;;
77146;SDS011;66121;52.584;9.694;2023-10-19T04:23:40;39.63;;;20.13;;
77146;SDS011;66121;52.584;9.694;2023-10-19T04:26:26;42.15;;;20.60;;
77146;SDS011;66121;52.584;9.694;2023-10-19T04:29:11;36.55;;;19.02;;
77146;SDS011;66121;52.584;9.694;2023-10-19T04:31:58;36.80;;;19.73;;
77146;SDS011;66121;52.584;9.694;2023-10-19T04:34:44;35.97;;;16.73;;
77146;SDS011;66121;52.584;9.694;2023-10-19T04:37:30;35.92;;;17.67;;
77146;SDS011;66121;52.584;9.694;2023-10-19T04:40:16;32.72;;;17.63;;
77146;SDS011;66121;52.584;9.694;2023-10-19T04:43:02;37.63;;;18.83;;
77146;SDS011;66121;52.584;9.694;2023-10-19T04:45:50;36.63;;;19.63;;
77146;SDS011;66121;52.584;9.694;2023-10-19T04:48:37;40.53;;;20.65;;
77146;SDS011;66121;52.584;9.694;2023-10-19T04:51:25;32.80;;;16.73;;
77146;SDS011;66121;52.584;9.694;2023-10-19T04:54:10;31.63;;;16.92;;
77146;SDS011;66121;52.584;9.694;2023-10-19T04:56:56;31.50;;;17.52;;
77146;SDS011;66121;52.584;9.694;2023-10-19T04:59:42;32.05;;;17.83;;
77146;SDS011;66121;52.584;9.694;2023-10-19T05:02:30;33.30;;;18.30;;
77146;SDS011;66121;52.584;9.694;2023-10-19T05:05:16;27.73;;;14.27;;
77146;SDS011;66121;52.584;9.694;2023-10-19T05:08:02;30.55;;;16.67;;
77146;SDS011;66121;52.584;9.694;2023-10-19T05:10:49;29.27;;;16.35;;
77146;SDS011;66121;52.584;9.694;2023-10-19T05:13:35;28.67;;;15.68;;
77146;SDS011;66121;52.584;9.694;2023-10-19T05:16:20;29.35;;;17.15;;
77146;SDS011;66121;52.584;9.694;2023-10-19T05:19:06;25.45;;;13.82;;
77146;SDS011;66121;52.584;9.694;2023-10-19T05:21:52;31.75;;;15.57;;
77146;SDS011;66121;52.584;9.694;2023-10-19T05:24:37;29.80;;;15.80;;
77146;SDS011;66121;52.584;9.694;2023-10-19T05:27:23;29.27;;;16.45;;
77146;SDS011;66121;52.584;9.694;2023-10-19T05:30:09;30.27;;;15.80;;
77146;SDS011;66121;52.584;9.694;2023-10-19T05:32:55;26.67;;;15.50;;
77146;SDS011;66121;52.584;9.694;2023-10-19T05:35:41;30.55;;;16.35;;
77146;SDS011;66121;52.584;9.694;2023-10-19T05:38:26;32.97;;;17.55;;
77146;SDS011;66121;52.584;9.694;2023-10-19T05:41:12;30.15;;;16.80;;
77146;SDS011;66121;52.584;9.694;2023-10-19T05:43:58;33.63;;;17.67;;
77146;SDS011;66121;52.584;9.694;2023-10-19T05:46:43;33.67;;;17.75;;
77146;SDS011;66121;52.584;9.694;2023-10-19T05:49:29;26.05;;;14.10;;
77146;SDS011;66121;52.584;9.694;2023-10-19T05:52:15;31.08;;;15.70;;
77146;SDS011;66121;52.584;9.694;2023-10-19T05:55:01;26.92;;;13.93;;
77146;SDS011;66121;52.584;9.694;2023-10-19T05:57:47;26.83;;;14.70;;
77146;SDS011;66121;52.584;9.694;2023-10-19T06:00:32;28.85;;;14.57;;
77146;SDS011;66121;52.584;9.694;2023-10-19T06:03:20;32.92;;;16.92;;
77146;SDS011;66121;52.584;9.694;2023-10-19T06:06:05;33.65;;;16.40;;
77146;SDS011;66121;52.584;9.694;2023-10-19T06:08:51;28.50;;;15.43;;
77146;SDS011;66121;52.584;9.694;2023-10-19T06:11:38;28.40;;;14.77;;
77146;SDS011;66121;52.584;9.694;2023-10-19T06:14:27;26.92;;;15.73;;
77146;SDS011;66121;52.584;9.694;2023-10-19T06:17:15;25.55;;;14.38;;
77146;SDS011;66121;52.584;9.694;2023-10-19T06:20:05;28.25;;;14.13;;
77146;SDS011;66121;52.584;9.694;2023-10-19T06:22:54;27.40;;;14.48;;
77146;SDS011;66121;52.584;9.694;2023-10-19T06:25:41;24.95;;;14.30;;
77146;SDS011;66121;52.584;9.694;2023-10-19T06:28:28;26.42;;;14.88;;
77146;SDS011;66121;52.584;9.694;2023-10-19T06:31:14;29.88;;;15.40;;
77146;SDS011;66121;52.584;9.694;2023-10-19T06:34:00;27.95;;;15.10;;
77146;SDS011;66121;52.584;9.694;2023-10-19T06:36:46;24.77;;;13.13;;
77146;SDS011;66121;52.584;9.694;2023-10-19T06:39:32;24.17;;;12.23;;
77146;SDS011;66121;52.584;9.694;2023-10-19T06:42:17;26.50;;;15.43;;
77146;SDS011;66121;52.584;9.694;2023-10-19T06:45:03;33.55;;;15.68;;
77146;SDS011;66121;52.584;9.694;2023-10-19T06:47:49;23.45;;;13.88;;
77146;SDS011;66121;52.584;9.694;2023-10-19T06:50:35;23.67;;;12.32;;
77146;SDS011;66121;52.584;9.694;2023-10-19T06:53:21;24.25;;;13.82;;
77146;SDS011;66121;52.584;9.694;2023-10-19T06:56:07;23.27;;;12.82;;
77146;SDS011;66121;52.584;9.694;2023-10-19T06:58:53;19.85;;;11.43;;
77146;SDS011;66121;52.584;9.694;2023-10-19T07:01:39;24.80;;;14.25;;
77146;SDS011;66121;52.584;9.694;2023-10-19T07:04:25;22.85;;;12.85;;
77146;SDS011;66121;52.584;9.694;2023-10-19T07:07:11;24.88;;;13.27;;
77146;SDS011;66121;52.584;9.694;2023-10-19T07:09:57;20.92;;;11.55;;
77146;SDS011;66121;52.584;9.694;2023-10-19T07:12:44;18.48;;;10.45;;
77146;SDS011;66121;52.584;9.694;2023-10-19T07:15:31;26.08;;;14.25;;
77146;SDS011;66121;52.584;9.694;2023-10-19T07:18:17;24.95;;;15.07;;
77146;SDS011;66121;52.584;9.694;2023-10-19T07:21:03;24.30;;;14.20;;
77146;SDS011;66121;52.584;9.694;2023-10-19T07:23:48;21.90;;;12.52;;
77146;SDS011;66121;52.584;9.694;2023-10-19T07:26:37;26.52;;;15.57;;
77146;SDS011;66121;52.584;9.694;2023-10-19T07:29:38;22.45;;;12.80;;
77146;SDS011;66121;52.584;9.694;2023-10-19T07:32:28;19.67;;;11.63;;
77146;SDS011;66121;52.584;9.694;2023-10-19T07:35:14;22.30;;;12.95;;
77146;SDS011;66121;52.584;9.694;2023-10-19T07:37:59;23.17;;;12.90;;
77146;SDS011;66121;52.584;9.694;2023-10-19T07:40:45;22.98;;;12.93;;
77146;SDS011;66121;52.584;9.694;2023-10-19T07:43:30;21.40;;;13.43;;
77146;SDS011;66121;52.584;9.694;2023-10-19T07:46:16;20.67;;;12.95;;
77146;SDS011;66121;52.584;9.694;2023-10-19T07:49:02;24.45;;;15.98;;
77146;SDS011;66121;52.584;9.694;2023-10-19T07:51:48;27.42;;;15.68;;
77146;SDS011;66121;52.584;9.694;2023-10-19T07:54:35;23.13;;;14.95;;
77146;SDS011;66121;52.584;9.694;2023-10-19T07:57:20;28.08;;;15.02;;
77146;SDS011;66121;52.584;9.694;2023-10-19T08:00:06;20.67;;;12.38;;
77146;SDS011;66121;52.584;9.694;2023-10-19T08:02:53;22.17;;;12.02;;
77146;SDS011;66121;52.584;9.694;2023-10-19T08:05:39;19.20;;;11.75;;
77146;SDS011;66121;52.584;9.694;2023-10-19T08:08:25;18.40;;;11.27;;
77146;SDS011;66121;52.584;9.694;2023-10-19T08:11:10;19.35;;;12.38;;
77146;SDS011;66121;52.584;9.694;2023-10-19T08:13:56;21.95;;;13.02;;
77146;SDS011;66121;52.584;9.694;2023-10-19T08:16:42;18.65;;;11.13;;
77146;SDS011;66121;52.584;9.694;2023-10-19T08:19:28;19.90;;;10.65;;
77146;SDS011;66121;52.584;9.694;2023-10-19T08:22:16;20.35;;;11.27;;
77146;SDS011;66121;52.584;9.694;2023-10-19T08:25:02;34.25;;;17.98;;
77146;SDS011;66121;52.584;9.694;2023-10-19T08:27:49;20.63;;;11.18;;
77146;SDS011;66121;52.584;9.694;2023-10-19T08:30:36;17.20;;;10.88;;
77146;SDS011;66121;52.584;9.694;2023-10-19T08:33:23;18.15;;;10.90;;
77146;SDS011;66121;52.584;9.694;2023-10-19T08:36:16;17.88;;;11.13;;
77146;SDS011;66121;52.584;9.694;2023-10-19T08:39:08;17.13;;;10.57;;
77146;SDS011;66121;52.584;9.694;2023-10-19T08:41:57;15.93;;;10.30;;
77146;SDS011;66121;52.584;9.694;2023-10-19T08:44:44;15.07;;;9.82;;
77146;SDS011;66121;52.584;9.694;2023-10-19T08:47:30;16.38;;;9.20;;
77146;SDS011;66121;52.584;9.694;2023-10-19T08:50:16;17.30;;;9.30;;
77146;SDS011;66121;52.584;9.694;2023-10-19T08:53:02;14.80;;;9.73;;
77146;SDS011;66121;52.584;9.694;2023-10-19T08:55:48;13.80;;;8.25;;
77146;SDS011;66121;52.584;9.694;2023-10-19T08:58:35;13.15;;;8.40;;
77146;SDS011;66121;52.584;9.694;2023-10-19T09:01:21;12.73;;;8.05;;
77146;SDS011;66121;52.584;9.694;2023-10-19T09:04:12;11.60;;;7.50;;
77146;SDS011;66121;52.584;9.694;2023-10-19T09:07:02;11.05;;;7.53;;
77146;SDS011;66121;52.584;9.694;2023-10-19T09:09:53;12.20;;;8.25;;
77146;SDS011;66121;52.584;9.694;2023-10-19T09:12:41;9.85;;;6.30;;
77146;SDS011;66121;52.584;9.694;2023-10-19T09:15:28;12.13;;;7.50;;
77146;SDS011;66121;52.584;9.694;2023-10-19T09:18:19;10.73;;;7.30;;
77146;SDS011;66121;52.584;9.694;2023-10-19T09:21:06;10.43;;;6.57;;
77146;SDS011;66121;52.584;9.694;2023-10-19T09:23:53;9.85;;;6.10;;
77146;SDS011;66121;52.584;9.694;2023-10-19T09:26:41;14.85;;;8.13;;
77146;SDS011;66121;52.584;9.694;2023-10-19T09:29:27;17.35;;;9.85;;
77146;SDS011;66121;52.584;9.694;2023-10-19T09:32:13;14.43;;;8.02;;
77146;SDS011;66121;52.584;9.694;2023-10-19T09:34:59;15.10;;;8.60;;
77146;SDS011;66121;52.584;9.694;2023-10-19T09:37:45;13.10;;;7.78;;
77146;SDS011;66121;52.584;9.694;2023-10-19T09:40:31;9.50;;;5.63;;
77146;SDS011;66121;52.584;9.694;2023-10-19T09:43:21;11.55;;;7.90;;
77146;SDS011;66121;52.584;9.694;2023-10-19T09:46:20;11.43;;;7.07;;
77146;SDS011;66121;52.584;9.694;2023-10-19T09:49:07;10.30;;;6.82;;
77146;SDS011;66121;52.584;9.694;2023-10-19T09:51:56;9.20;;;6.43;;
77146;SDS011;66121;52.584;9.694;2023-10-19T09:54:57;9.10;;;6.22;;
77146;SDS011;66121;52.584;9.694;2023-10-19T10:00:47;8.98;;;6.53;;
77146;SDS011;66121;52.584;9.694;2023-10-19T10:03:42;9.18;;;5.85;;
77146;SDS011;66121;52.584;9.694;2023-10-19T10:06:29;8.88;;;5.63;;
77146;SDS011;66121;52.584;9.694;2023-10-19T10:09:36;9.40;;;6.40;;
77146;SDS011;66121;52.584;9.694;2023-10-19T10:12:25;9.35;;;6.35;;
77146;SDS011;66121;52.584;9.694;2023-10-19T10:15:14;10.43;;;6.65;;
77146;SDS011;66121;52.584;9.694;2023-10-19T10:18:11;9.80;;;6.63;;
77146;SDS011;66121;52.584;9.694;2023-10-19T10:21:06;8.63;;;6.40;;
77146;SDS011;66121;52.584;9.694;2023-10-19T10:26:57;9.77;;;6.18;;
77146;SDS011;66121;52.584;9.694;2023-10-19T10:29:54;12.20;;;7.15;;
77146;SDS011;66121;52.584;9.694;2023-10-19T10:32:52;10.00;;;6.70;;
77146;SDS011;66121;52.584;9.694;2023-10-19T10:38:26;9.73;;;6.53;;
77146;SDS011;66121;52.584;9.694;2023-10-19T10:41:21;8.75;;;5.90;;
77146;SDS011;66121;52.584;9.694;2023-10-19T10:44:17;11.57;;;6.78;;
77146;SDS011;66121;52.584;9.694;2023-10-19T10:47:05;10.23;;;6.50;;
77146;SDS011;66121;52.584;9.694;2023-10-19T10:49:58;11.00;;;7.45;;
77146;SDS011;66121;52.584;9.694;2023-10-19T10:52:45;10.63;;;6.95;;
77146;SDS011;66121;52.584;9.694;2023-10-19T10:55:30;12.20;;;7.45;;
77146;SDS011;66121;52.584;9.694;2023-10-19T10:58:18;9.55;;;6.57;;
77146;SDS011;66121;52.584;9.694;2023-10-19T11:01:05;8.75;;;6.38;;
77146;SDS011;66121;52.584;9.694;2023-10-19T11:04:04;11.32;;;7.82;;
77146;SDS011;66121;52.584;9.694;2023-10-19T11:06:52;13.45;;;9.18;;
77146;SDS011;66121;52.584;9.694;2023-10-19T11:09:44;13.48;;;9.13;;
77146;SDS011;66121;52.584;9.694;2023-10-19T11:12:30;12.57;;;8.90;;
77146;SDS011;66121;52.584;9.694;2023-10-19T11:15:20;13.98;;;9.05;;
77146;SDS011;66121;52.584;9.694;2023-10-19T11:18:06;13.52;;;9.38;;
77146;SDS011;66121;52.584;9.694;2023-10-19T11:20:55;14.65;;;10.07;;
77146;SDS011;66121;52.584;9.694;2023-10-19T11:23:45;11.68;;;7.47;;
77146;SDS011;66121;52.584;9.694;2023-10-19T11:26:37;9.93;;;6.25;;
77146;SDS011;66121;52.584;9.694;2023-10-19T11:29:25;13.73;;;8.88;;
77146;SDS011;66121;52.584;9.694;2023-10-19T11:32:11;14.27;;;9.20;;
77146;SDS011;66121;52.584;9.694;2023-10-19T11:34:56;15.90;;;10.02;;
77146;SDS011;66121;52.584;9.694;2023-10-19T11:37:49;16.48;;;9.82;;
77146;SDS011;66121;52.584;9.694;2023-10-19T11:40:35;13.07;;;8.13;;
77146;SDS011;66121;52.584;9.694;2023-10-19T11:43:21;17.10;;;9.80;;
77146;SDS011;66121;52.584;9.694;2023-10-19T11:46:07;14.70;;;9.18;;
77146;SDS011;66121;52.584;9.694;2023-10-19T11:48:52;14.32;;;9.38;;
77146;SDS011;66121;52.584;9.694;2023-10-19T11:51:38;15.70;;;9.27;;
77146;SDS011;66121;52.584;9.694;2023-10-19T11:54:23;15.27;;;9.55;;
77146;SDS011;66121;52.584;9.694;2023-10-19T11:57:10;21.40;;;10.30;;
77146;SDS011;66121;52.584;9.694;2023-10-19T11:59:57;16.98;;;10.65;;
77146;SDS011;66121;52.584;9.694;2023-10-19T12:02:44;13.75;;;8.90;;
77146;SDS011;66121;52.584;9.694;2023-10-19T12:05:31;18.33;;;10.50;;
77146;SDS011;66121;52.584;9.694;2023-10-19T12:08:16;18.08;;;10.60;;
77146;SDS011;66121;52.584;9.694;2023-10-19T12:11:03;20.73;;;12.30;;
77146;SDS011;66121;52.584;9.694;2023-10-19T12:13:49;20.58;;;11.95;;
77146;SDS011;66121;52.584;9.694;2023-10-19T12:16:35;18.50;;;12.07;;
77146;SDS011;66121;52.584;9.694;2023-10-19T12:19:21;17.55;;;10.90;;
77146;SDS011;66121;52.584;9.694;2023-10-19T12:22:07;22.73;;;11.65;;
77146;SDS011;66121;52.584;9.694;2023-10-19T12:24:54;19.70;;;11.70;;
77146;SDS011;66121;52.584;9.694;2023-10-19T12:27:43;22.25;;;13.45;;
77146;SDS011;66121;52.584;9.694;2023-10-19T12:30:29;18.80;;;10.75;;
77146;SDS011;66121;52.584;9.694;2023-10-19T12:33:17;21.52;;;13.25;;
77146;SDS011;66121;52.584;9.694;2023-10-19T12:36:05;23.17;;;13.90;;
77146;SDS011;66121;52.584;9.694;2023-10-19T12:39:09;25.95;;;15.20;;
77146;SDS011;66121;52.584;9.694;2023-10-19T12:41:55;23.90;;;12.50;;
77146;SDS011;66121;52.584;9.694;2023-10-19T12:44:42;24.95;;;11.98;;
77146;SDS011;66121;52.584;9.694;2023-10-19T12:47:28;23.90;;;11.98;;
77146;SDS011;66121;52.584;9.694;2023-10-19T12:50:15;24.60;;;12.77;;
77146;SDS011;66121;52.584;9.694;2023-10-19T12:53:01;26.52;;;14.38;;
77146;SDS011;66121;52.584;9.694;2023-10-19T12:55:46;20.15;;;10.88;;
77146;SDS011;66121;52.584;9.694;2023-10-19T12:58:33;20.85;;;12.25;;
77146;SDS011;66121;52.584;9.694;2023-10-19T13:01:18;29.27;;;16.23;;
77146;SDS011;66121;52.584;9.694;2023-10-19T13:04:05;30.90;;;14.80;;
77146;SDS011;66121;52.584;9.694;2023-10-19T13:07:01;30.35;;;14.35;;
77146;SDS011;66121;52.584;9.694;2023-10-19T13:09:48;27.52;;;13.75;;
77146;SDS011;66121;52.584;9.694;2023-10-19T13:12:34;30.67;;;15.82;;
77146;SDS011;66121;52.584;9.694;2023-10-19T13:15:22;28.30;;;15.10;;
77146;SDS011;66121;52.584;9.694;2023-10-19T13:18:11;30.90;;;14.63;;
77146;SDS011;66121;52.584;9.694;2023-10-19T13:20:58;33.80;;;15.48;;
77146;SDS011;66121;52.584;9.694;2023-10-19T13:23:46;33.40;;;17.02;;
77146;SDS011;66121;52.584;9.694;2023-10-19T13:26:32;32.22;;;16.23;;
77146;SDS011;66121;52.584;9.694;2023-10-19T13:29:19;28.67;;;14.43;;
77146;SDS011;66121;52.584;9.694;2023-10-19T13:32:05;23.48;;;13.50;;
77146;SDS011;66121;52.584;9.694;2023-10-19T13:34:51;28.42;;;14.20;;
77146;SDS011;66121;52.584;9.694;2023-10-19T13:37:37;26.15;;;13.30;;
77146;SDS011;66121;52.584;9.694;2023-10-19T13:40:22;35.75;;;17.00;;
77146;SDS011;66121;52.584;9.694;2023-10-19T13:43:09;33.25;;;15.02;;
77146;SDS011;66121;52.584;9.694;2023-10-19T13:45:59;26.80;;;14.32;;
77146;SDS011;66121;52.584;9.694;2023-10-19T13:48:46;35.33;;;16.60;;
77146;SDS011;66121;52.584;9.694;2023-10-19T13:51:32;38.25;;;18.13;;
77146;SDS011;66121;52.584;9.694;2023-10-19T13:54:18;35.47;;;18.05;;
77146;SDS011;66121;52.584;9.694;2023-10-19T13:57:04;29.33;;;13.68;;
77146;SDS011;66121;52.584;9.694;2023-10-19T13:59:49;34.63;;;14.35;;
77146;SDS011;66121;52.584;9.694;2023-10-19T14:02:36;35.28;;;18.23;;
77146;SDS011;66121;52.584;9.694;2023-10-19T14:05:21;33.20;;;16.85;;
77146;SDS011;66121;52.584;9.694;2023-10-19T14:08:09;26.65;;;13.93;;
77146;SDS011;66121;52.584;9.694;2023-10-19T14:11:02;36.95;;;16.50;;
77146;SDS011;66121;52.584;9.694;2023-10-19T14:13:48;26.10;;;15.13;;
77146;SDS011;66121;52.584;9.694;2023-10-19T14:16:37;37.60;;;17.77;;
77146;SDS011;66121;52.584;9.694;2023-10-19T14:19:24;35.47;;;17.55;;
77146;SDS011;66121;52.584;9.694;2023-10-19T14:22:11;43.33;;;20.40;;
77146;SDS011;66121;52.584;9.694;2023-10-19T14:24:56;64.47;;;27.80;;
77146;SDS011;66121;52.584;9.694;2023-10-19T14:27:43;47.17;;;21.20;;
77146;SDS011;66121;52.584;9.694;2023-10-19T14:30:29;43.92;;;19.33;;
77146;SDS011;66121;52.584;9.694;2023-10-19T14:33:15;37.80;;;18.02;;
77146;SDS011;66121;52.584;9.694;2023-10-19T14:36:01;45.50;;;19.00;;
77146;SDS011;66121;52.584;9.694;2023-10-19T14:38:48;44.10;;;21.17;;
77146;SDS011;66121;52.584;9.694;2023-10-19T14:41:34;48.75;;;21.38;;
77146;SDS011;66121;52.584;9.694;2023-10-19T14:44:19;36.05;;;18.05;;
77146;SDS011;66121;52.584;9.694;2023-10-19T14:47:05;43.45;;;19.02;;
77146;SDS011;66121;52.584;9.694;2023-10-19T14:49:51;47.00;;;20.48;;
77146;SDS011;66121;52.584;9.694;2023-10-19T14:52:37;46.10;;;19.88;;
77146;SDS011;66121;52.584;9.694;2023-10-19T14:55:26;51.03;;;22.13;;
77146;SDS011;66121;52.584;9.694;2023-10-19T14:58:12;43.03;;;18.77;;
77146;SDS011;66121;52.584;9.694;2023-10-19T15:00:58;36.58;;;16.20;;
77146;SDS011;66121;52.584;9.694;2023-10-19T15:03:43;45.95;;;20.13;;
77146;SDS011;66121;52.584;9.694;2023-10-19T15:06:29;49.25;;;20.20;;
77146;SDS011;66121;52.584;9.694;2023-10-19T15:09:16;50.45;;;22.27;;
77146;SDS011;66121;52.584;9.694;2023-10-19T15:12:05;48.47;;;21.10;;
77146;SDS011;66121;52.584;9.694;2023-10-19T15:14:52;57.88;;;23.85;;
77146;SDS011;66121;52.584;9.694;2023-10-19T15:17:38;48.22;;;23.20;;
77146;SDS011;66121;52.584;9.694;2023-10-19T15:20:29;49.45;;;21.63;;
77146;SDS011;66121;52.584;9.694;2023-10-19T15:23:18;61.60;;;24.88;;
77146;SDS011;66121;52.584;9.694;2023-10-19T15:26:04;63.78;;;27.02;;
77146;SDS011;66121;52.584;9.694;2023-10-19T15:28:49;65.43;;;29.30;;
77146;SDS011;66121;52.584;9.694;2023-10-19T15:31:35;59.40;;;27.40;;
77146;SDS011;66121;52.584;9.694;2023-10-19T15:34:21;60.63;;;24.25;;
77146;SDS011;66121;52.584;9.694;2023-10-19T15:37:06;66.30;;;26.92;;
77146;SDS011;66121;52.584;9.694;2023-10-19T15:39:52;58.70;;;23.27;;
77146;SDS011;66121;52.584;9.694;2023-10-19T15:42:39;47.53;;;19.85;;
77146;SDS011;66121;52.584;9.694;2023-10-19T15:45:28;64.15;;;23.95;;
77146;SDS011;66121;52.584;9.694;2023-10-19T15:48:14;52.15;;;23.15;;
77146;SDS011;66121;52.584;9.694;2023-10-19T15:51:00;66.90;;;24.77;;
77146;SDS011;66121;52.584;9.694;2023-10-19T15:53:45;55.15;;;22.85;;
77146;SDS011;66121;52.584;9.694;2023-10-19T15:56:31;59.83;;;25.30;;
77146;SDS011;66121;52.584;9.694;2023-10-19T15:59:16;46.67;;;17.60;;
77146;SDS011;66121;52.584;9.694;2023-10-19T16:02:02;64.40;;;24.80;;
77146;SDS011;66121;52.584;9.694;2023-10-19T16:04:48;58.80;;;23.67;;
77146;SDS011;66121;52.584;9.694;2023-10-19T16:07:34;57.38;;;24.38;;
77146;SDS011;66121;52.584;9.694;2023-10-19T16:10:21;57.75;;;23.40;;
77146;SDS011;66121;52.584;9.694;2023-10-19T16:13:06;74.88;;;31.50;;
77146;SDS011;66121;52.584;9.694;2023-10-19T16:15:53;64.97;;;27.33;;
77146;SDS011;66121;52.584;9.694;2023-10-19T16:18:38;54.95;;;25.40;;
77146;SDS011;66121;52.584;9.694;2023-10-19T16:21:24;67.38;;;27.05;;
77146;SDS011;66121;52.584;9.694;2023-10-19T16:24:10;61.65;;;26.15;;
77146;SDS011;66121;52.584;9.694;2023-10-19T16:26:56;61.75;;;24.65;;
77146;SDS011;66121;52.584;9.694;2023-10-19T16:29:42;66.47;;;26.58;;
77146;SDS011;66121;52.584;9.694;2023-10-19T16:32:28;59.10;;;25.02;;
77146;SDS011;66121;52.584;9.694;2023-10-19T16:35:15;63.78;;;26.10;;